sensor_id;sensor_type;location;lat;lon;timestamp;pressure;altitude;pressure_sealevel;temperature
22322;BMP180;11328;53.928;18.522;2022-09-11T00:01:32;99977.00;;;17.20
22322;BMP180;11328;53.928;18.522;2022-09-11T00:04:01;99989.00;;;17.20
22322;BMP180;11328;53.928;18.522;2022-09-11T00:06:28;99988.00;;;17.20
22322;BMP180;11328;53.928;18.522;2022-09-11T00:09:04;99984.00;;;17.20
22322;BMP180;11328;53.928;18.522;2022-09-11T00:11:38;99981.00;;;17.30
22322;BMP180;11328;53.928;18.522;2022-09-11T00:14:12;99984.00;;;17.40
22322;BMP180;11328;53.928;18.522;2022-09-11T00:16:44;99987.00;;;17.40
22322;BMP180;11328;53.928;18.522;2022-09-11T00:19:17;99989.00;;;17.20
22322;BMP180;11328;53.928;18.522;2022-09-11T00:21:45;99992.00;;;17.20
22322;BMP180;11328;53.928;18.522;2022-09-11T00:24:13;99986.00;;;17.20
22322;BMP180;11328;53.928;18.522;2022-09-11T00:26:40;99990.00;;;17.30
22322;BMP180;11328;53.928;18.522;2022-09-11T00:29:09;99986.00;;;17.30
22322;BMP180;11328;53.928;18.522;2022-09-11T00:31:36;99987.00;;;17.40
22322;BMP180;11328;53.928;18.522;2022-09-11T00:34:03;99991.00;;;17.30
22322;BMP180;11328;53.928;18.522;2022-09-11T00:36:32;99988.00;;;17.30
22322;BMP180;11328;53.928;18.522;2022-09-11T00:39:02;99992.00;;;17.20
22322;BMP180;11328;53.928;18.522;2022-09-11T00:41:36;99989.00;;;17.10
22322;BMP180;11328;53.928;18.522;2022-09-11T00:46:42;99979.00;;;17.10
22322;BMP180;11328;53.928;18.522;2022-09-11T00:51:53;99975.00;;;17.10
22322;BMP180;11328;53.928;18.522;2022-09-11T00:54:30;99974.00;;;17.10
22322;BMP180;11328;53.928;18.522;2022-09-11T00:57:04;99965.00;;;17.20
22322;BMP180;11328;53.928;18.522;2022-09-11T00:59:33;99965.00;;;17.10
22322;BMP180;11328;53.928;18.522;2022-09-11T01:02:01;99960.00;;;17.20
22322;BMP180;11328;53.928;18.522;2022-09-11T01:04:28;99967.00;;;17.10
22322;BMP180;11328;53.928;18.522;2022-09-11T01:06:56;99967.00;;;16.90
22322;BMP180;11328;53.928;18.522;2022-09-11T01:09:28;99957.00;;;16.90
22322;BMP180;11328;53.928;18.522;2022-09-11T01:12:17;99951.00;;;16.80
22322;BMP180;11328;53.928;18.522;2022-09-11T01:29:33;99943.00;;;16.90
22322;BMP180;11328;53.928;18.522;2022-09-11T01:32:13;99953.00;;;16.80
22322;BMP180;11328;53.928;18.522;2022-09-11T01:37:51;99949.00;;;16.90
22322;BMP180;11328;53.928;18.522;2022-09-11T01:40:28;99957.00;;;16.90
22322;BMP180;11328;53.928;18.522;2022-09-11T01:43:07;99940.00;;;16.80
22322;BMP180;11328;53.928;18.522;2022-09-11T01:45:41;99934.00;;;16.60
22322;BMP180;11328;53.928;18.522;2022-09-11T01:48:13;99944.00;;;16.40
22322;BMP180;11328;53.928;18.522;2022-09-11T01:50:46;99940.00;;;16.40
22322;BMP180;11328;53.928;18.522;2022-09-11T01:53:17;99933.00;;;16.40
22322;BMP180;11328;53.928;18.522;2022-09-11T01:56:02;99937.00;;;16.50
22322;BMP180;11328;53.928;18.522;2022-09-11T01:58:34;99923.00;;;16.40
22322;BMP180;11328;53.928;18.522;2022-09-11T02:01:33;99927.00;;;16.50
22322;BMP180;11328;53.928;18.522;2022-09-11T02:04:15;99928.00;;;16.40
22322;BMP180;11328;53.928;18.522;2022-09-11T02:07:07;99935.00;;;16.60
22322;BMP180;11328;53.928;18.522;2022-09-11T02:09:46;99928.00;;;16.50
22322;BMP180;11328;53.928;18.522;2022-09-11T02:12:18;99929.00;;;16.60
22322;BMP180;11328;53.928;18.522;2022-09-11T02:14:50;99928.00;;;16.70
22322;BMP180;11328;53.928;18.522;2022-09-11T02:17:53;99921.00;;;16.50
22322;BMP180;11328;53.928;18.522;2022-09-11T02:20:20;99920.00;;;16.50
22322;BMP180;11328;53.928;18.522;2022-09-11T02:22:47;99916.00;;;16.50
22322;BMP180;11328;53.928;18.522;2022-09-11T02:25:15;99918.00;;;16.40
22322;BMP180;11328;53.928;18.522;2022-09-11T02:27:42;99923.00;;;16.40
22322;BMP180;11328;53.928;18.522;2022-09-11T02:30:10;99927.00;;;16.40
22322;BMP180;11328;53.928;18.522;2022-09-11T02:32:41;99927.00;;;16.40
22322;BMP180;11328;53.928;18.522;2022-09-11T02:35:10;99930.00;;;16.50
22322;BMP180;11328;53.928;18.522;2022-09-11T02:40:38;99928.00;;;16.60
22322;BMP180;11328;53.928;18.522;2022-09-11T02:43:49;99927.00;;;16.50
22322;BMP180;11328;53.928;18.522;2022-09-11T02:49:45;99926.00;;;16.60
22322;BMP180;11328;53.928;18.522;2022-09-11T02:52:24;99929.00;;;16.60
22322;BMP180;11328;53.928;18.522;2022-09-11T02:55:19;99929.00;;;16.60
22322;BMP180;11328;53.928;18.522;2022-09-11T03:00:28;99928.00;;;16.70
22322;BMP180;11328;53.928;18.522;2022-09-11T03:02:56;99926.00;;;16.70
22322;BMP180;11328;53.928;18.522;2022-09-11T03:05:23;99936.00;;;16.70
22322;BMP180;11328;53.928;18.522;2022-09-11T03:07:50;99923.00;;;16.60
22322;BMP180;11328;53.928;18.522;2022-09-11T03:10:17;99927.00;;;16.60
22322;BMP180;11328;53.928;18.522;2022-09-11T03:12:44;99926.00;;;16.70
22322;BMP180;11328;53.928;18.522;2022-09-11T03:15:11;99923.00;;;16.70
22322;BMP180;11328;53.928;18.522;2022-09-11T03:17:39;99926.00;;;16.70
22322;BMP180;11328;53.928;18.522;2022-09-11T03:20:07;99936.00;;;16.70
22322;BMP180;11328;53.928;18.522;2022-09-11T03:22:34;99928.00;;;16.70
22322;BMP180;11328;53.928;18.522;2022-09-11T03:25:01;99927.00;;;16.70
22322;BMP180;11328;53.928;18.522;2022-09-11T03:27:28;99925.00;;;16.70
22322;BMP180;11328;53.928;18.522;2022-09-11T03:29:55;99926.00;;;16.70
22322;BMP180;11328;53.928;18.522;2022-09-11T03:32:22;99917.00;;;16.70
22322;BMP180;11328;53.928;18.522;2022-09-11T03:34:50;99923.00;;;16.60
22322;BMP180;11328;53.928;18.522;2022-09-11T03:37:17;99929.00;;;16.70
22322;BMP180;11328;53.928;18.522;2022-09-11T03:39:44;99925.00;;;16.60
22322;BMP180;11328;53.928;18.522;2022-09-11T03:42:11;99925.00;;;16.60
22322;BMP180;11328;53.928;18.522;2022-09-11T03:44:38;99926.00;;;16.50
22322;BMP180;11328;53.928;18.522;2022-09-11T03:47:07;99931.00;;;16.50
22322;BMP180;11328;53.928;18.522;2022-09-11T03:49:34;99923.00;;;16.40
22322;BMP180;11328;53.928;18.522;2022-09-11T03:52:01;99923.00;;;16.50
22322;BMP180;11328;53.928;18.522;2022-09-11T03:54:28;99918.00;;;16.50
22322;BMP180;11328;53.928;18.522;2022-09-11T03:56:55;99929.00;;;16.40
22322;BMP180;11328;53.928;18.522;2022-09-11T03:59:24;99932.00;;;16.40
22322;BMP180;11328;53.928;18.522;2022-09-11T04:01:51;99933.00;;;16.50
22322;BMP180;11328;53.928;18.522;2022-09-11T04:04:18;99930.00;;;16.40
22322;BMP180;11328;53.928;18.522;2022-09-11T04:06:47;99926.00;;;16.40
22322;BMP180;11328;53.928;18.522;2022-09-11T04:09:14;99935.00;;;16.50
22322;BMP180;11328;53.928;18.522;2022-09-11T04:11:41;99939.00;;;16.60
22322;BMP180;11328;53.928;18.522;2022-09-11T04:14:08;99923.00;;;16.60
22322;BMP180;11328;53.928;18.522;2022-09-11T04:16:35;99932.00;;;16.70
22322;BMP180;11328;53.928;18.522;2022-09-11T04:19:03;99923.00;;;16.70
22322;BMP180;11328;53.928;18.522;2022-09-11T04:21:30;99935.00;;;16.70
22322;BMP180;11328;53.928;18.522;2022-09-11T04:23:59;99939.00;;;16.40
22322;BMP180;11328;53.928;18.522;2022-09-11T04:26:30;99939.00;;;16.30
22322;BMP180;11328;53.928;18.522;2022-09-11T04:28:59;99923.00;;;16.40
22322;BMP180;11328;53.928;18.522;2022-09-11T04:31:27;99927.00;;;16.40
22322;BMP180;11328;53.928;18.522;2022-09-11T04:33:55;99913.00;;;16.50
22322;BMP180;11328;53.928;18.522;2022-09-11T04:36:24;99935.00;;;16.50
22322;BMP180;11328;53.928;18.522;2022-09-11T04:38:55;99931.00;;;16.40
22322;BMP180;11328;53.928;18.522;2022-09-11T04:41:24;99937.00;;;16.40
22322;BMP180;11328;53.928;18.522;2022-09-11T04:43:56;99946.00;;;16.30
22322;BMP180;11328;53.928;18.522;2022-09-11T04:46:30;99937.00;;;16.20
22322;BMP180;11328;53.928;18.522;2022-09-11T04:48:57;99942.00;;;16.10
22322;BMP180;11328;53.928;18.522;2022-09-11T04:51:33;99940.00;;;16.10
22322;BMP180;11328;53.928;18.522;2022-09-11T04:54:01;99939.00;;;16.00
22322;BMP180;11328;53.928;18.522;2022-09-11T04:56:33;99935.00;;;15.90
22322;BMP180;11328;53.928;18.522;2022-09-11T04:59:04;99939.00;;;15.90
22322;BMP180;11328;53.928;18.522;2022-09-11T05:01:32;99939.00;;;15.90
22322;BMP180;11328;53.928;18.522;2022-09-11T05:04:00;99940.00;;;15.90
22322;BMP180;11328;53.928;18.522;2022-09-11T05:06:29;99929.00;;;15.70
22322;BMP180;11328;53.928;18.522;2022-09-11T05:09:02;99927.00;;;15.80
22322;BMP180;11328;53.928;18.522;2022-09-11T05:11:30;99949.00;;;15.90
22322;BMP180;11328;53.928;18.522;2022-09-11T05:13:58;99935.00;;;16.00
22322;BMP180;11328;53.928;18.522;2022-09-11T05:16:27;99948.00;;;15.90
22322;BMP180;11328;53.928;18.522;2022-09-11T05:18:57;99950.00;;;15.90
22322;BMP180;11328;53.928;18.522;2022-09-11T05:21:27;99947.00;;;15.80
22322;BMP180;11328;53.928;18.522;2022-09-11T05:23:57;99961.00;;;15.70
22322;BMP180;11328;53.928;18.522;2022-09-11T05:26:28;99955.00;;;15.90
22322;BMP180;11328;53.928;18.522;2022-09-11T05:28:59;99962.00;;;15.80
22322;BMP180;11328;53.928;18.522;2022-09-11T05:31:26;99956.00;;;15.90
22322;BMP180;11328;53.928;18.522;2022-09-11T05:33:55;99954.00;;;15.80
22322;BMP180;11328;53.928;18.522;2022-09-11T05:36:23;99944.00;;;15.90
22322;BMP180;11328;53.928;18.522;2022-09-11T05:38:52;99954.00;;;15.90
22322;BMP180;11328;53.928;18.522;2022-09-11T05:41:20;99966.00;;;15.90
22322;BMP180;11328;53.928;18.522;2022-09-11T05:43:47;99965.00;;;16.00
22322;BMP180;11328;53.928;18.522;2022-09-11T05:46:18;99964.00;;;16.00
22322;BMP180;11328;53.928;18.522;2022-09-11T05:48:46;99956.00;;;16.10
22322;BMP180;11328;53.928;18.522;2022-09-11T05:51:17;99966.00;;;16.10
22322;BMP180;11328;53.928;18.522;2022-09-11T05:53:47;99961.00;;;16.20
22322;BMP180;11328;53.928;18.522;2022-09-11T05:56:19;99971.00;;;16.30
22322;BMP180;11328;53.928;18.522;2022-09-11T05:58:48;99971.00;;;16.30
22322;BMP180;11328;53.928;18.522;2022-09-11T06:01:21;99976.00;;;16.20
22322;BMP180;11328;53.928;18.522;2022-09-11T06:03:49;99966.00;;;16.20
22322;BMP180;11328;53.928;18.522;2022-09-11T06:06:19;99972.00;;;16.40
22322;BMP180;11328;53.928;18.522;2022-09-11T06:08:49;99971.00;;;16.40
22322;BMP180;11328;53.928;18.522;2022-09-11T06:11:19;99962.00;;;16.40
22322;BMP180;11328;53.928;18.522;2022-09-11T06:13:48;99977.00;;;16.60
22322;BMP180;11328;53.928;18.522;2022-09-11T06:16:19;99978.00;;;16.40
22322;BMP180;11328;53.928;18.522;2022-09-11T06:18:48;99981.00;;;16.40
22322;BMP180;11328;53.928;18.522;2022-09-11T06:21:19;99978.00;;;16.50
22322;BMP180;11328;53.928;18.522;2022-09-11T06:23:49;99982.00;;;16.50
22322;BMP180;11328;53.928;18.522;2022-09-11T06:26:22;99985.00;;;16.50
22322;BMP180;11328;53.928;18.522;2022-09-11T06:28:51;99988.00;;;16.60
22322;BMP180;11328;53.928;18.522;2022-09-11T06:31:22;99988.00;;;16.60
22322;BMP180;11328;53.928;18.522;2022-09-11T06:33:50;99999.00;;;16.60
22322;BMP180;11328;53.928;18.522;2022-09-11T06:36:21;99981.00;;;16.40
22322;BMP180;11328;53.928;18.522;2022-09-11T06:38:54;99972.00;;;16.50
22322;BMP180;11328;53.928;18.522;2022-09-11T06:41:23;99988.00;;;16.60
22322;BMP180;11328;53.928;18.522;2022-09-11T06:43:51;99980.00;;;16.70
22322;BMP180;11328;53.928;18.522;2022-09-11T06:46:22;99975.00;;;16.70
22322;BMP180;11328;53.928;18.522;2022-09-11T06:48:50;99984.00;;;16.80
22322;BMP180;11328;53.928;18.522;2022-09-11T06:51:20;99974.00;;;16.70
22322;BMP180;11328;53.928;18.522;2022-09-11T06:53:52;99988.00;;;16.60
22322;BMP180;11328;53.928;18.522;2022-09-11T06:56:20;99974.00;;;16.60
22322;BMP180;11328;53.928;18.522;2022-09-11T06:58:48;99991.00;;;16.60
22322;BMP180;11328;53.928;18.522;2022-09-11T07:01:18;99991.00;;;16.60
22322;BMP180;11328;53.928;18.522;2022-09-11T07:03:48;99987.00;;;16.70
22322;BMP180;11328;53.928;18.522;2022-09-11T07:06:27;99976.00;;;16.70
22322;BMP180;11328;53.928;18.522;2022-09-11T07:08:58;99984.00;;;16.80
22322;BMP180;11328;53.928;18.522;2022-09-11T07:11:31;99986.00;;;16.80
22322;BMP180;11328;53.928;18.522;2022-09-11T07:14:02;99981.00;;;16.90
22322;BMP180;11328;53.928;18.522;2022-09-11T07:16:32;99969.00;;;16.80
22322;BMP180;11328;53.928;18.522;2022-09-11T07:18:59;99984.00;;;16.80
22322;BMP180;11328;53.928;18.522;2022-09-11T07:21:27;99978.00;;;16.60
22322;BMP180;11328;53.928;18.522;2022-09-11T07:23:57;99970.00;;;16.50
22322;BMP180;11328;53.928;18.522;2022-09-11T07:26:27;99981.00;;;16.40
22322;BMP180;11328;53.928;18.522;2022-09-11T07:28:57;99967.00;;;16.60
22322;BMP180;11328;53.928;18.522;2022-09-11T07:31:30;99983.00;;;16.60
22322;BMP180;11328;53.928;18.522;2022-09-11T07:34:04;99982.00;;;16.50
22322;BMP180;11328;53.928;18.522;2022-09-11T07:36:33;99981.00;;;16.50
22322;BMP180;11328;53.928;18.522;2022-09-11T07:39:02;99980.00;;;16.60
22322;BMP180;11328;53.928;18.522;2022-09-11T07:41:30;99975.00;;;16.80
22322;BMP180;11328;53.928;18.522;2022-09-11T07:43:58;99972.00;;;17.10
22322;BMP180;11328;53.928;18.522;2022-09-11T07:46:26;99975.00;;;17.30
22322;BMP180;11328;53.928;18.522;2022-09-11T07:48:54;99982.00;;;17.50
22322;BMP180;11328;53.928;18.522;2022-09-11T07:51:22;99979.00;;;17.50
22322;BMP180;11328;53.928;18.522;2022-09-11T07:53:51;99983.00;;;17.60
22322;BMP180;11328;53.928;18.522;2022-09-11T07:56:23;99983.00;;;17.80
22322;BMP180;11328;53.928;18.522;2022-09-11T07:58:53;99975.00;;;18.20
22322;BMP180;11328;53.928;18.522;2022-09-11T08:01:25;99985.00;;;18.20
22322;BMP180;11328;53.928;18.522;2022-09-11T08:04:03;99995.00;;;18.40
22322;BMP180;11328;53.928;18.522;2022-09-11T08:06:34;99993.00;;;18.80
22322;BMP180;11328;53.928;18.522;2022-09-11T08:09:05;99992.00;;;19.00
22322;BMP180;11328;53.928;18.522;2022-09-11T08:11:38;99985.00;;;19.20
22322;BMP180;11328;53.928;18.522;2022-09-11T08:14:06;99988.00;;;19.20
22322;BMP180;11328;53.928;18.522;2022-09-11T08:16:33;99993.00;;;19.30
22322;BMP180;11328;53.928;18.522;2022-09-11T08:19:03;99990.00;;;19.30
22322;BMP180;11328;53.928;18.522;2022-09-11T08:21:31;99990.00;;;19.40
22322;BMP180;11328;53.928;18.522;2022-09-11T08:23:58;99989.00;;;19.90
22322;BMP180;11328;53.928;18.522;2022-09-11T08:26:29;99991.00;;;20.00
22322;BMP180;11328;53.928;18.522;2022-09-11T08:28:58;99983.00;;;20.10
22322;BMP180;11328;53.928;18.522;2022-09-11T08:31:26;99998.00;;;19.90
22322;BMP180;11328;53.928;18.522;2022-09-11T08:33:55;99993.00;;;19.60
22322;BMP180;11328;53.928;18.522;2022-09-11T08:36:23;100002.00;;;19.30
22322;BMP180;11328;53.928;18.522;2022-09-11T08:38:50;100007.00;;;19.30
22322;BMP180;11328;53.928;18.522;2022-09-11T08:41:29;99993.00;;;19.10
22322;BMP180;11328;53.928;18.522;2022-09-11T08:44:01;99978.00;;;19.00
22322;BMP180;11328;53.928;18.522;2022-09-11T08:46:51;99992.00;;;19.10
22322;BMP180;11328;53.928;18.522;2022-09-11T08:49:34;99983.00;;;19.10
22322;BMP180;11328;53.928;18.522;2022-09-11T08:52:03;99983.00;;;19.40
22322;BMP180;11328;53.928;18.522;2022-09-11T08:54:37;99994.00;;;19.50
22322;BMP180;11328;53.928;18.522;2022-09-11T09:05:53;99994.00;;;19.80
22322;BMP180;11328;53.928;18.522;2022-09-11T09:25:15;99965.00;;;20.40
22322;BMP180;11328;53.928;18.522;2022-09-11T09:28:32;99986.00;;;20.60
22322;BMP180;11328;53.928;18.522;2022-09-11T09:31:15;99981.00;;;20.40
22322;BMP180;11328;53.928;18.522;2022-09-11T09:34:00;99989.00;;;20.30
22322;BMP180;11328;53.928;18.522;2022-09-11T09:39:16;99992.00;;;20.50
22322;BMP180;11328;53.928;18.522;2022-09-11T09:47:47;99986.00;;;21.10
22322;BMP180;11328;53.928;18.522;2022-09-11T09:50:27;99998.00;;;21.00
22322;BMP180;11328;53.928;18.522;2022-09-11T09:56:05;100003.00;;;20.40
22322;BMP180;11328;53.928;18.522;2022-09-11T09:58:39;100007.00;;;20.30
22322;BMP180;11328;53.928;18.522;2022-09-11T10:04:16;100005.00;;;20.60
22322;BMP180;11328;53.928;18.522;2022-09-11T10:06:46;100005.00;;;20.40
22322;BMP180;11328;53.928;18.522;2022-09-11T10:09:26;99996.00;;;20.60
22322;BMP180;11328;53.928;18.522;2022-09-11T10:12:05;99986.00;;;21.00
22322;BMP180;11328;53.928;18.522;2022-09-11T10:14:50;99995.00;;;21.40
22322;BMP180;11328;53.928;18.522;2022-09-11T10:17:41;99987.00;;;21.70
22322;BMP180;11328;53.928;18.522;2022-09-11T10:20:28;99984.00;;;21.80
22322;BMP180;11328;53.928;18.522;2022-09-11T10:23:23;99985.00;;;22.10
22322;BMP180;11328;53.928;18.522;2022-09-11T10:25:52;99982.00;;;22.10
22322;BMP180;11328;53.928;18.522;2022-09-11T10:28:37;99982.00;;;22.20
22322;BMP180;11328;53.928;18.522;2022-09-11T10:31:04;99987.00;;;22.30
22322;BMP180;11328;53.928;18.522;2022-09-11T10:33:38;99991.00;;;21.60
22322;BMP180;11328;53.928;18.522;2022-09-11T10:36:08;99997.00;;;21.20
22322;BMP180;11328;53.928;18.522;2022-09-11T10:38:45;100007.00;;;21.30
22322;BMP180;11328;53.928;18.522;2022-09-11T10:43:51;100006.00;;;20.80
22322;BMP180;11328;53.928;18.522;2022-09-11T10:46:44;99998.00;;;20.90
22322;BMP180;11328;53.928;18.522;2022-09-11T10:49:20;100010.00;;;21.00
22322;BMP180;11328;53.928;18.522;2022-09-11T10:57:46;100003.00;;;21.10
22322;BMP180;11328;53.928;18.522;2022-09-11T11:00:27;100008.00;;;21.30
22322;BMP180;11328;53.928;18.522;2022-09-11T11:37:52;100024.00;;;20.60
22322;BMP180;11328;53.928;18.522;2022-09-11T11:40:34;100017.00;;;20.70
22322;BMP180;11328;53.928;18.522;2022-09-11T11:43:12;100017.00;;;20.80
22322;BMP180;11328;53.928;18.522;2022-09-11T11:45:58;100013.00;;;20.80
22322;BMP180;11328;53.928;18.522;2022-09-11T11:48:54;100018.00;;;20.60
22322;BMP180;11328;53.928;18.522;2022-09-11T11:51:26;100021.00;;;20.60
22322;BMP180;11328;53.928;18.522;2022-09-11T11:54:18;100027.00;;;20.70
22322;BMP180;11328;53.928;18.522;2022-09-11T11:56:56;100023.00;;;20.60
22322;BMP180;11328;53.928;18.522;2022-09-11T12:00:03;100033.00;;;20.50
22322;BMP180;11328;53.928;18.522;2022-09-11T12:03:05;100031.00;;;20.30
22322;BMP180;11328;53.928;18.522;2022-09-11T12:05:34;100012.00;;;20.40
22322;BMP180;11328;53.928;18.522;2022-09-11T12:08:02;100034.00;;;20.60
22322;BMP180;11328;53.928;18.522;2022-09-11T12:10:36;100033.00;;;20.70
22322;BMP180;11328;53.928;18.522;2022-09-11T12:13:14;100037.00;;;20.80
22322;BMP180;11328;53.928;18.522;2022-09-11T12:16:20;100029.00;;;20.80
22322;BMP180;11328;53.928;18.522;2022-09-11T12:19:18;100031.00;;;20.70
22322;BMP180;11328;53.928;18.522;2022-09-11T12:22:09;100051.00;;;20.60
22322;BMP180;11328;53.928;18.522;2022-09-11T12:24:55;100038.00;;;20.40
22322;BMP180;11328;53.928;18.522;2022-09-11T12:30:27;100030.00;;;20.60
22322;BMP180;11328;53.928;18.522;2022-09-11T12:32:58;100038.00;;;20.70
22322;BMP180;11328;53.928;18.522;2022-09-11T12:41:11;100028.00;;;20.90
22322;BMP180;11328;53.928;18.522;2022-09-11T12:49:09;100022.00;;;20.50
22322;BMP180;11328;53.928;18.522;2022-09-11T12:51:58;100029.00;;;20.50
22322;BMP180;11328;53.928;18.522;2022-09-11T12:54:37;100038.00;;;20.50
22322;BMP180;11328;53.928;18.522;2022-09-11T12:57:26;100036.00;;;20.40
22322;BMP180;11328;53.928;18.522;2022-09-11T13:00:02;100032.00;;;20.30
22322;BMP180;11328;53.928;18.522;2022-09-11T13:02:58;100025.00;;;20.30
22322;BMP180;11328;53.928;18.522;2022-09-11T13:05:33;100044.00;;;20.30
22322;BMP180;11328;53.928;18.522;2022-09-11T13:08:18;100034.00;;;20.30
22322;BMP180;11328;53.928;18.522;2022-09-11T13:10:48;100037.00;;;20.60
22322;BMP180;11328;53.928;18.522;2022-09-11T13:16:24;100032.00;;;20.80
22322;BMP180;11328;53.928;18.522;2022-09-11T13:19:12;100047.00;;;20.90
22322;BMP180;11328;53.928;18.522;2022-09-11T13:21:41;100032.00;;;20.90
22322;BMP180;11328;53.928;18.522;2022-09-11T13:24:29;100037.00;;;20.60
22322;BMP180;11328;53.928;18.522;2022-09-11T13:27:07;100033.00;;;20.60
22322;BMP180;11328;53.928;18.522;2022-09-11T13:29:37;100033.00;;;20.60
22322;BMP180;11328;53.928;18.522;2022-09-11T13:32:12;100028.00;;;20.50
22322;BMP180;11328;53.928;18.522;2022-09-11T13:34:47;100049.00;;;20.40
22322;BMP180;11328;53.928;18.522;2022-09-11T13:37:58;100052.00;;;20.40
22322;BMP180;11328;53.928;18.522;2022-09-11T13:41:02;100039.00;;;20.40
22322;BMP180;11328;53.928;18.522;2022-09-11T13:43:44;100047.00;;;20.20
22322;BMP180;11328;53.928;18.522;2022-09-11T13:48:47;100048.00;;;20.00
22322;BMP180;11328;53.928;18.522;2022-09-11T13:51:20;100052.00;;;20.00
22322;BMP180;11328;53.928;18.522;2022-09-11T13:54:35;100038.00;;;20.20
22322;BMP180;11328;53.928;18.522;2022-09-11T13:57:20;100035.00;;;20.10
22322;BMP180;11328;53.928;18.522;2022-09-11T13:59:54;100052.00;;;20.10
22322;BMP180;11328;53.928;18.522;2022-09-11T14:02:49;100051.00;;;20.10
22322;BMP180;11328;53.928;18.522;2022-09-11T14:05:25;100052.00;;;20.20
22322;BMP180;11328;53.928;18.522;2022-09-11T14:08:16;100059.00;;;20.40
22322;BMP180;11328;53.928;18.522;2022-09-11T14:10:57;100059.00;;;20.40
22322;BMP180;11328;53.928;18.522;2022-09-11T14:13:43;100060.00;;;20.30
22322;BMP180;11328;53.928;18.522;2022-09-11T14:18:58;100044.00;;;20.20
22322;BMP180;11328;53.928;18.522;2022-09-11T14:21:36;100059.00;;;20.30
22322;BMP180;11328;53.928;18.522;2022-09-11T14:24:33;100081.00;;;20.50
22322;BMP180;11328;53.928;18.522;2022-09-11T14:27:48;100066.00;;;20.30
22322;BMP180;11328;53.928;18.522;2022-09-11T14:29:53;100081.00;;;20.20
22322;BMP180;11328;53.928;18.522;2022-09-11T14:32:35;100091.00;;;20.40
22322;BMP180;11328;53.928;18.522;2022-09-11T14:35:07;100085.00;;;20.50
22322;BMP180;11328;53.928;18.522;2022-09-11T14:37:41;100073.00;;;20.60
22322;BMP180;11328;53.928;18.522;2022-09-11T14:40:17;100084.00;;;20.70
22322;BMP180;11328;53.928;18.522;2022-09-11T14:42:48;100078.00;;;20.60
22322;BMP180;11328;53.928;18.522;2022-09-11T14:45:23;100063.00;;;20.50
22322;BMP180;11328;53.928;18.522;2022-09-11T14:47:52;100084.00;;;20.50
22322;BMP180;11328;53.928;18.522;2022-09-11T14:50:19;100076.00;;;20.60
22322;BMP180;11328;53.928;18.522;2022-09-11T14:52:47;100075.00;;;20.60
22322;BMP180;11328;53.928;18.522;2022-09-11T14:55:18;100079.00;;;20.30
22322;BMP180;11328;53.928;18.522;2022-09-11T14:57:46;100082.00;;;20.20
22322;BMP180;11328;53.928;18.522;2022-09-11T15:00:17;100077.00;;;20.00
22322;BMP180;11328;53.928;18.522;2022-09-11T15:02:45;100073.00;;;20.00
22322;BMP180;11328;53.928;18.522;2022-09-11T15:05:17;100087.00;;;20.00
22322;BMP180;11328;53.928;18.522;2022-09-11T15:07:45;100083.00;;;20.00
22322;BMP180;11328;53.928;18.522;2022-09-11T15:10:19;100089.00;;;20.10
22322;BMP180;11328;53.928;18.522;2022-09-11T15:12:49;100096.00;;;20.20
22322;BMP180;11328;53.928;18.522;2022-09-11T15:15:20;100084.00;;;20.20
22322;BMP180;11328;53.928;18.522;2022-09-11T15:17:48;100083.00;;;20.20
22322;BMP180;11328;53.928;18.522;2022-09-11T15:20:16;100090.00;;;20.00
22322;BMP180;11328;53.928;18.522;2022-09-11T15:22:47;100085.00;;;19.90
22322;BMP180;11328;53.928;18.522;2022-09-11T15:25:21;100085.00;;;20.00
22322;BMP180;11328;53.928;18.522;2022-09-11T15:27:56;100094.00;;;20.20
22322;BMP180;11328;53.928;18.522;2022-09-11T15:30:27;100097.00;;;20.20
22322;BMP180;11328;53.928;18.522;2022-09-11T15:33:00;100093.00;;;20.30
22322;BMP180;11328;53.928;18.522;2022-09-11T15:35:28;100102.00;;;20.10
22322;BMP180;11328;53.928;18.522;2022-09-11T15:37:58;100101.00;;;20.00
22322;BMP180;11328;53.928;18.522;2022-09-11T15:40:26;100082.00;;;19.70
22322;BMP180;11328;53.928;18.522;2022-09-11T15:42:55;100100.00;;;19.70
22322;BMP180;11328;53.928;18.522;2022-09-11T15:45:23;100094.00;;;19.60
22322;BMP180;11328;53.928;18.522;2022-09-11T15:47:50;100098.00;;;19.50
22322;BMP180;11328;53.928;18.522;2022-09-11T15:50:17;100102.00;;;19.50
22322;BMP180;11328;53.928;18.522;2022-09-11T15:52:50;100110.00;;;19.50
22322;BMP180;11328;53.928;18.522;2022-09-11T15:55:17;100104.00;;;19.40
22322;BMP180;11328;53.928;18.522;2022-09-11T15:57:44;100102.00;;;19.30
22322;BMP180;11328;53.928;18.522;2022-09-11T16:00:12;100105.00;;;19.20
22322;BMP180;11328;53.928;18.522;2022-09-11T16:02:40;100100.00;;;19.20
22322;BMP180;11328;53.928;18.522;2022-09-11T16:05:07;100101.00;;;19.10
22322;BMP180;11328;53.928;18.522;2022-09-11T16:07:35;100091.00;;;19.10
22322;BMP180;11328;53.928;18.522;2022-09-11T16:10:02;100093.00;;;19.10
22322;BMP180;11328;53.928;18.522;2022-09-11T16:12:29;100104.00;;;19.10
22322;BMP180;11328;53.928;18.522;2022-09-11T16:14:57;100114.00;;;18.90
22322;BMP180;11328;53.928;18.522;2022-09-11T16:17:24;100106.00;;;18.80
22322;BMP180;11328;53.928;18.522;2022-09-11T16:19:57;100111.00;;;18.80
22322;BMP180;11328;53.928;18.522;2022-09-11T16:22:27;100115.00;;;18.70
22322;BMP180;11328;53.928;18.522;2022-09-11T16:24:57;100114.00;;;18.60
22322;BMP180;11328;53.928;18.522;2022-09-11T16:27:25;100118.00;;;18.60
22322;BMP180;11328;53.928;18.522;2022-09-11T16:29:52;100124.00;;;18.70
22322;BMP180;11328;53.928;18.522;2022-09-11T16:43:31;100118.00;;;18.80
22322;BMP180;11328;53.928;18.522;2022-09-11T16:45:59;100117.00;;;18.60
22322;BMP180;11328;53.928;18.522;2022-09-11T16:48:27;100117.00;;;18.40
22322;BMP180;11328;53.928;18.522;2022-09-11T16:50:55;100121.00;;;18.50
22322;BMP180;11328;53.928;18.522;2022-09-11T16:53:29;100126.00;;;18.30
22322;BMP180;11328;53.928;18.522;2022-09-11T16:55:58;100128.00;;;18.30